Time;durP1;ratioP1;P1;durP2;ratioP2;P2;SDS_P1;SDS_P2;PMS_P1;PMS_P2;Temp;Humidity;BMP_temperature;BMP_pressure;BME280_temperature;BME280_humidity;BME280_pressure;Samples;Min_cycle;Max_cycle;Signal;HPM_P1;HPM_P2
2022/12/04 00:01:40;;;;;;;50.42;25.42;;;;;;;2.98;42.50;102258.56;7392953;19;20325;-59
2022/12/04 00:04:06;;;;;;;51.13;24.77;;;;;;;2.88;42.70;102254.91;7394755;19;20031;-59
2022/12/04 00:06:35;;;;;;;50.53;25.75;;;;;;;2.85;42.49;102253.56;7392365;19;19995;-58
2022/12/04 00:09:01;;;;;;;55.55;25.15;;;;;;;2.85;42.43;102258.97;7394025;19;19998;-58
2022/12/04 00:11:33;;;;;;;51.95;26.13;;;;;;;2.73;42.79;102259.06;7392452;19;20074;-58
2022/12/04 00:14:00;;;;;;;48.13;24.10;;;;;;;2.66;43.13;102254.94;7395224;19;19998;-59
2022/12/04 00:16:28;;;;;;;48.72;24.40;;;;;;;2.85;42.79;102256.25;7392220;19;20074;-58
2022/12/04 00:18:54;;;;;;;52.15;26.55;;;;;;;2.73;42.95;102250.97;7394223;19;20062;-58
2022/12/04 00:21:22;;;;;;;53.47;25.02;;;;;;;2.74;43.19;102252.63;7393137;19;20006;-59
2022/12/04 00:23:48;;;;;;;49.72;25.20;;;;;;;2.79;42.72;102254.56;7392127;19;20025;-59
2022/12/04 00:26:23;;;;;;;49.42;25.10;;;;;;;2.83;42.57;102250.28;7393315;19;20461;-58
2022/12/04 00:28:49;;;;;;;51.80;24.05;;;;;;;2.67;43.18;102245.78;7391319;19;20473;-58
2022/12/04 00:31:19;;;;;;;53.05;25.30;;;;;;;2.88;42.85;102249.53;7393421;19;20058;-58
2022/12/04 00:33:45;;;;;;;50.30;25.55;;;;;;;2.96;42.60;102249.88;7391853;19;20006;-58
2022/12/04 00:36:13;;;;;;;49.85;26.15;;;;;;;2.82;43.12;102247.84;7392643;19;20031;-58
2022/12/04 00:38:39;;;;;;;52.80;24.77;;;;;;;2.92;42.74;102250.66;7393790;19;20010;-58
2022/12/04 00:41:08;;;;;;;52.35;25.65;;;;;;;2.69;43.31;102249.06;7392471;19;20358;-58
2022/12/04 00:43:33;;;;;;;48.95;24.95;;;;;;;2.67;43.34;102251.16;7393094;19;19999;-59
2022/12/04 00:45:59;;;;;;;51.63;24.80;;;;;;;2.79;43.09;102241.09;7392563;19;20003;-59
2022/12/04 00:48:25;;;;;;;50.80;25.83;;;;;;;2.88;43.03;102239.53;7393056;19;20003;-59
2022/12/04 00:50:52;;;;;;;51.13;24.95;;;;;;;2.86;42.98;102236.28;7392539;19;20062;-59
2022/12/04 00:53:18;;;;;;;46.17;23.95;;;;;;;2.82;43.17;102234.34;7391504;19;19995;-59
2022/12/04 00:55:44;;;;;;;52.03;25.88;;;;;;;2.82;43.32;102237.88;7392287;19;20309;-59
2022/12/04 00:58:11;;;;;;;47.97;24.50;;;;;;;2.91;42.96;102239.03;7392878;19;20066;-59
2022/12/04 01:00:39;;;;;;;51.05;24.42;;;;;;;2.87;42.96;102246.03;7391713;19;20002;-58
2022/12/04 01:03:07;;;;;;;49.03;24.33;;;;;;;2.77;43.21;102244.03;7392577;19;20007;-59
2022/12/04 01:05:39;;;;;;;49.33;25.60;;;;;;;2.89;43.04;102238.50;7391720;19;20007;-59
2022/12/04 01:08:04;;;;;;;48.72;24.65;;;;;;;3.00;42.84;102241.28;7392400;19;20003;-58
2022/12/04 01:10:30;;;;;;;53.05;26.27;;;;;;;2.91;42.98;102236.34;7390684;19;20002;-58
2022/12/04 01:12:56;;;;;;;54.22;25.67;;;;;;;2.95;43.08;102242.88;7392450;19;20034;-58
2022/12/04 01:15:21;;;;;;;48.53;25.20;;;;;;;2.95;42.82;102242.88;7390510;19;20462;-58
2022/12/04 01:17:47;;;;;;;52.55;25.52;;;;;;;2.90;43.25;102242.81;7392484;19;20330;-58
2022/12/04 01:20:13;;;;;;;50.55;25.15;;;;;;;3.00;42.88;102242.09;7389852;19;20303;-58
2022/12/04 01:22:39;;;;;;;50.38;25.05;;;;;;;2.96;43.05;102238.28;7389497;19;19998;-59
2022/12/04 01:25:05;;;;;;;52.47;25.02;;;;;;;2.97;43.06;102235.34;7391843;19;20006;-58
2022/12/04 01:27:31;;;;;;;48.28;25.05;;;;;;;2.87;43.34;102237.94;7391217;19;20006;-59
2022/12/04 01:29:57;;;;;;;47.33;25.35;;;;;;;3.00;42.96;102231.31;7390124;19;20038;-59
2022/12/04 01:32:23;;;;;;;51.10;24.58;;;;;;;2.85;43.47;102232.00;7390331;19;19999;-59
2022/12/04 01:34:49;;;;;;;53.60;24.65;;;;;;;2.94;43.12;102235.84;7390394;19;20385;-60
2022/12/04 01:37:15;;;;;;;48.72;23.63;;;;;;;3.00;42.86;102238.59;7389853;19;20002;-59
2022/12/04 01:39:41;;;;;;;47.95;24.33;;;;;;;3.03;42.93;102230.81;7390108;19;20010;-59
2022/12/04 01:42:12;;;;;;;48.88;25.05;;;;;;;3.01;43.00;102222.16;7389429;19;20002;-60
2022/12/04 01:44:42;;;;;;;52.17;25.52;;;;;;;2.86;43.45;102225.50;7391762;19;20002;-59
2022/12/04 01:47:09;;;;;;;47.00;24.17;;;;;;;2.96;43.46;102228.31;7389159;19;20003;-59
2022/12/04 01:49:40;;;;;;;49.33;24.10;;;;;;;2.97;43.09;102224.56;7387370;19;20009;-58
2022/12/04 01:52:14;;;;;;;48.90;24.00;;;;;;;2.70;43.99;102221.84;7389885;19;19999;-59
2022/12/04 01:54:44;;;;;;;47.67;24.63;;;;;;;2.86;43.56;102217.41;7390325;19;20006;-58
2022/12/04 01:57:16;;;;;;;48.38;25.38;;;;;;;3.05;43.18;102219.75;7390478;19;20007;-58
2022/12/04 01:59:50;;;;;;;51.22;25.65;;;;;;;2.93;43.25;102215.31;7389571;19;20358;-58
2022/12/04 02:02:23;;;;;;;51.65;24.45;;;;;;;3.00;43.31;102220.50;7389524;19;20006;-57
2022/12/04 02:04:49;;;;;;;49.97;24.35;;;;;;;2.95;43.60;102220.47;7389601;19;20475;-59
2022/12/04 02:07:21;;;;;;;49.97;24.77;;;;;;;2.99;43.33;102210.81;7391110;19;20010;-60
2022/12/04 02:09:52;;;;;;;51.30;25.55;;;;;;;2.96;43.45;102211.31;7389642;19;20041;-58
2022/12/04 02:12:35;;;;;;;49.95;25.00;;;;;;;2.85;43.65;102215.81;7389128;19;20090;-59
2022/12/04 02:15:21;;;;;;;49.00;24.88;;;;;;;2.84;43.54;102211.47;7389827;19;20017;-58
2022/12/04 02:17:59;;;;;;;49.45;24.88;;;;;;;2.86;43.80;102216.63;7391299;19;19995;-59
2022/12/04 02:20:35;;;;;;;51.72;25.80;;;;;;;2.98;43.58;102207.31;7387825;19;20038;-59
2022/12/04 02:23:07;;;;;;;53.55;25.88;;;;;;;3.08;43.34;102220.06;7390580;19;19999;-58
2022/12/04 02:25:35;;;;;;;54.47;25.80;;;;;;;2.73;44.03;102217.81;7389101;19;20020;-58
2022/12/04 02:28:08;;;;;;;50.25;24.08;;;;;;;2.79;44.07;102222.19;7390826;19;20003;-58
2022/12/04 02:30:38;;;;;;;53.17;25.05;;;;;;;2.94;43.72;102219.66;7388890;19;20039;-58
2022/12/04 02:33:39;;;;;;;52.05;24.70;;;;;;;3.02;43.65;102220.25;7389991;19;19998;-58
2022/12/04 02:36:28;;;;;;;47.35;24.05;;;;;;;2.98;43.64;102218.09;7388235;19;20005;-59
2022/12/04 02:39:02;;;;;;;53.80;26.38;;;;;;;2.93;43.96;102220.72;7390430;19;19999;-59
2022/12/04 02:41:54;;;;;;;50.72;25.40;;;;;;;3.02;43.57;102220.25;7388008;19;20019;-59
2022/12/04 02:44:34;;;;;;;54.40;25.10;;;;;;;2.93;43.94;102222.59;7388111;19;20011;-59
2022/12/04 02:47:03;;;;;;;51.75;24.27;;;;;;;2.95;43.92;102229.38;7390669;19;20002;-58
2022/12/04 02:49:45;;;;;;;51.40;25.38;;;;;;;2.84;44.25;102216.06;7395997;19;19998;-58
2022/12/04 02:52:16;;;;;;;52.28;25.70;;;;;;;2.97;44.12;102219.16;7393885;19;20006;-58
2022/12/04 02:54:49;;;;;;;52.65;26.52;;;;;;;3.05;43.84;102225.97;7396739;19;20074;-59
2022/12/04 02:57:19;;;;;;;53.35;25.38;;;;;;;3.10;43.57;102223.34;7397232;19;20021;-58
2022/12/04 02:59:49;;;;;;;51.53;24.58;;;;;;;3.09;43.73;102221.69;7397846;19;20078;-59
2022/12/04 03:02:27;;;;;;;51.92;25.58;;;;;;;3.06;43.89;102214.09;7397062;19;20006;-59
2022/12/04 03:04:56;;;;;;;51.03;25.50;;;;;;;3.07;44.05;102218.44;7396591;19;19998;-59
2022/12/04 03:07:33;;;;;;;55.50;25.17;;;;;;;2.97;44.10;102221.03;7397386;19;20002;-58
2022/12/04 03:10:13;;;;;;;52.40;26.60;;;;;;;2.91;44.26;102217.47;7394498;19;20007;-59
2022/12/04 03:13:05;;;;;;;50.33;25.20;;;;;;;2.92;44.26;102215.59;7392010;19;20003;-58
2022/12/04 03:15:41;;;;;;;52.30;26.02;;;;;;;3.02;44.09;102215.69;7395181;19;20017;-59
2022/12/04 03:18:22;;;;;;;55.80;26.95;;;;;;;2.90;44.23;102220.41;7395613;19;20345;-59
2022/12/04 03:20:53;;;;;;;53.97;26.05;;;;;;;3.00;44.20;102225.09;7394975;19;20003;-60
2022/12/04 03:23:33;;;;;;;48.80;24.98;;;;;;;3.05;44.18;102208.97;7394812;19;20002;-58
2022/12/04 03:26:05;;;;;;;51.05;24.45;;;;;;;3.08;44.16;102219.25;7395386;19;20003;-59
2022/12/04 03:28:53;;;;;;;51.58;26.88;;;;;;;2.87;44.35;102210.97;7394309;19;20024;-59
2022/12/04 03:31:33;;;;;;;49.95;23.90;;;;;;;2.97;44.29;102212.97;7394579;19;20031;-59
2022/12/04 03:34:02;;;;;;;47.78;25.15;;;;;;;2.92;44.69;102215.59;7394670;19;20010;-57
2022/12/04 03:36:38;;;;;;;51.78;25.40;;;;;;;3.04;44.41;102205.47;7394942;19;20003;-58
2022/12/04 03:39:17;;;;;;;50.80;25.90;;;;;;;2.91;44.62;102209.38;7395751;19;20002;-58
2022/12/04 03:42:01;;;;;;;49.97;24.45;;;;;;;2.95;44.71;102199.72;7391885;19;20402;-59
2022/12/04 03:44:56;;;;;;;54.72;25.88;;;;;;;2.90;45.22;102201.53;7395999;19;20002;-59
2022/12/04 03:47:35;;;;;;;50.17;25.02;;;;;;;2.97;44.87;102196.78;7395322;19;20010;-59
2022/12/04 03:50:06;;;;;;;54.83;26.55;;;;;;;2.64;45.55;102201.28;7393753;19;20002;-58
2022/12/04 03:52:51;;;;;;;52.35;25.88;;;;;;;2.72;45.48;102195.44;7394957;19;20540;-59
2022/12/04 03:55:25;;;;;;;51.35;24.92;;;;;;;2.76;45.42;102201.13;7394732;19;20014;-59
2022/12/04 03:57:58;;;;;;;52.65;25.75;;;;;;;2.83;45.04;102201.75;7392518;19;20062;-59
2022/12/04 04:00:24;;;;;;;52.25;26.10;;;;;;;2.82;45.23;102199.28;7393321;19;20011;-58
2022/12/04 04:03:07;;;;;;;48.67;24.73;;;;;;;2.78;45.64;102204.38;7395044;19;20035;-58
2022/12/04 04:05:35;;;;;;;50.97;24.75;;;;;;;2.81;45.34;102198.50;7394835;19;20013;-59
2022/12/04 04:10:57;;;;;;;51.92;25.30;;;;;;;2.83;45.59;102196.34;7393700;19;20010;-59
2022/12/04 04:24:51;;;;;;;54.72;26.20;;;;;;;2.79;46.04;102201.44;7394774;19;20039;-58
2022/12/04 04:27:16;;;;;;;52.88;25.52;;;;;;;2.96;45.68;102193.25;7394886;19;20003;-59
2022/12/04 04:29:43;;;;;;;49.40;24.60;;;;;;;2.81;45.95;102203.88;7392461;19;20013;-59
2022/12/04 04:32:41;;;;;;;49.05;24.02;;;;;;;2.88;46.20;102199.09;7392428;19;19999;-60
2022/12/04 04:35:18;;;;;;;46.13;24.85;;;;;;;2.99;45.81;102191.94;7391962;19;20003;-59
2022/12/04 04:38:08;;;;;;;53.80;25.90;;;;;;;2.89;45.96;102189.13;7394107;19;20007;-58
2022/12/04 04:40:43;;;;;;;52.72;24.80;;;;;;;2.78;46.20;102190.91;7393963;19;20007;-59
2022/12/04 04:43:19;;;;;;;51.78;25.10;;;;;;;2.82;46.28;102197.44;7394218;19;20003;-59
2022/12/04 04:46:03;;;;;;;51.75;25.05;;;;;;;2.76;46.67;102201.13;7393548;19;20003;-59
2022/12/04 04:48:34;;;;;;;;;;;;;;;2.69;46.90;102201.34;7394173;19;19998;-59
2022/12/04 04:51:02;;;;;;;50.33;24.02;;;;;;;2.90;46.02;102202.38;7391408;19;20376;-59
2022/12/04 04:53:35;;;;;;;48.67;23.77;;;;;;;2.87;46.16;102200.19;7393188;19;20498;-59
2022/12/04 04:56:04;;;;;;;52.63;24.27;;;;;;;2.83;46.10;102207.13;7393040;19;20372;-59
2022/12/04 04:58:30;;;;;;;50.00;23.75;;;;;;;2.62;46.53;102208.81;7393858;19;20030;-58
2022/12/04 05:00:57;;;;;;;51.58;24.30;;;;;;;2.73;46.31;102207.03;7392063;19;20003;-58
2022/12/04 05:03:24;;;;;;;49.30;23.35;;;;;;;2.70;46.37;102202.13;7393303;19;20006;-59
2022/12/04 05:05:49;;;;;;;53.30;25.48;;;;;;;2.72;46.61;102206.22;7392523;19;20469;-58
2022/12/04 05:08:15;;;;;;;52.95;24.55;;;;;;;2.87;46.00;102208.28;7393146;19;20007;-59
2022/12/04 05:10:41;;;;;;;50.03;24.35;;;;;;;3.02;46.01;102204.06;7391012;19;20037;-58
2022/12/04 05:13:10;;;;;;;49.42;24.33;;;;;;;3.00;45.98;102206.22;7390222;19;20422;-58
2022/12/04 05:15:36;;;;;;;49.58;24.13;;;;;;;2.86;46.38;102212.03;7391752;19;20073;-58
2022/12/04 05:18:01;;;;;;;48.42;23.02;;;;;;;2.93;46.00;102209.13;7392809;19;19999;-59
2022/12/04 05:20:27;;;;;;;47.67;23.25;;;;;;;2.93;46.04;102209.94;7392144;19;20007;-58
2022/12/04 05:22:53;;;;;;;49.58;24.58;;;;;;;3.00;46.08;102209.72;7390086;19;20004;-58
2022/12/04 05:25:18;;;;;;;46.72;22.25;;;;;;;3.04;45.73;102208.16;7392160;19;20010;-58
2022/12/04 05:27:44;;;;;;;49.90;24.38;;;;;;;2.93;46.25;102199.13;7391666;19;20328;-58
2022/12/04 05:30:10;;;;;;;49.83;24.55;;;;;;;2.90;46.18;102209.63;7390926;19;20008;-59
2022/12/04 05:32:36;;;;;;;47.45;23.38;;;;;;;3.06;46.06;102202.50;7391792;19;19999;-59
2022/12/04 05:35:03;;;;;;;46.78;23.42;;;;;;;3.21;45.69;102208.03;7391519;19;20387;-59
2022/12/04 05:37:28;;;;;;;49.25;23.95;;;;;;;3.18;45.90;102208.53;7390604;19;19998;-59
2022/12/04 05:39:54;;;;;;;47.83;23.27;;;;;;;3.13;45.79;102203.91;7390112;19;19995;-58
2022/12/04 05:42:20;;;;;;;49.80;23.45;;;;;;;3.03;46.05;102213.81;7391395;19;20002;-58
2022/12/04 05:44:47;;;;;;;47.15;23.05;;;;;;;2.86;46.39;102213.91;7390953;19;19999;-59
2022/12/04 05:47:13;;;;;;;45.58;22.67;;;;;;;2.87;46.50;102213.66;7390035;19;20017;-59
2022/12/04 05:49:39;;;;;;;46.75;23.48;;;;;;;3.06;46.21;102216.00;7389868;19;20473;-58
2022/12/04 05:52:05;;;;;;;46.53;23.88;;;;;;;3.11;45.91;102210.66;7389774;19;20489;-58
2022/12/04 05:54:30;;;;;;;48.03;23.02;;;;;;;3.10;45.81;102212.53;7389066;19;19987;-58
2022/12/04 05:56:56;;;;;;;48.53;23.08;;;;;;;3.12;45.96;102213.09;7390922;19;20054;-59
2022/12/04 05:59:22;;;;;;;47.78;23.40;;;;;;;3.11;45.95;102207.94;7391270;19;19998;-58
2022/12/04 06:01:48;;;;;;;49.47;23.67;;;;;;;3.15;45.86;102214.44;7389704;19;19999;-59
2022/12/04 06:04:13;;;;;;;48.75;23.15;;;;;;;3.24;45.59;102212.94;7389341;19;20058;-60
2022/12/04 06:06:39;;;;;;;47.58;23.60;;;;;;;3.33;45.60;102216.75;7390742;19;20002;-58
2022/12/04 06:09:07;;;;;;;50.00;23.92;;;;;;;3.34;45.62;102213.00;7387808;19;20013;-59
2022/12/04 06:11:37;;;;;;;47.30;22.58;;;;;;;3.33;45.86;102211.38;7388027;19;20014;-59
2022/12/04 06:14:05;;;;;;;48.42;23.20;;;;;;;3.39;45.63;102211.44;7391233;19;20009;-58
2022/12/04 06:16:35;;;;;;;48.63;23.33;;;;;;;3.30;45.59;102211.06;7388236;19;19998;-59
2022/12/04 06:19:04;;;;;;;50.42;23.85;;;;;;;3.24;45.84;102218.31;7391258;19;20002;-59
2022/12/04 06:21:34;;;;;;;43.60;21.92;;;;;;;3.23;45.86;102219.38;7389030;19;20028;-59
2022/12/04 06:24:01;;;;;;;51.22;23.50;;;;;;;3.27;45.83;102215.13;7396127;19;20470;-59
2022/12/04 06:26:27;;;;;;;46.00;23.45;;;;;;;3.29;45.81;102215.66;7397175;19;20030;-59
2022/12/04 06:28:55;;;;;;;50.28;24.60;;;;;;;3.24;45.98;102218.31;7396215;19;20007;-58
2022/12/04 06:31:22;;;;;;;47.60;22.65;;;;;;;3.28;46.00;102219.44;7396355;19;20015;-58
2022/12/04 06:33:48;;;;;;;45.45;23.30;;;;;;;3.27;45.96;102223.22;7397861;19;20016;-58
2022/12/04 06:36:17;;;;;;;45.92;23.85;;;;;;;3.30;46.06;102216.47;7397790;19;20066;-59
2022/12/04 06:38:44;;;;;;;53.35;23.48;;;;;;;3.24;45.87;102215.63;7397840;19;20007;-59
2022/12/04 06:41:12;;;;;;;46.42;22.83;;;;;;;3.30;45.88;102221.88;7395834;19;19999;-58
2022/12/04 06:43:39;;;;;;;49.30;23.42;;;;;;;3.30;45.90;102224.56;7398411;19;20015;-58
2022/12/04 06:46:08;;;;;;;48.88;23.10;;;;;;;3.21;46.12;102224.22;7396733;19;20010;-59
2022/12/04 06:48:34;;;;;;;48.35;23.65;;;;;;;3.30;45.90;102228.09;7397809;19;20010;-58
2022/12/04 06:51:04;;;;;;;48.15;24.63;;;;;;;3.24;46.08;102229.13;7394647;19;20450;-58
2022/12/04 06:53:32;;;;;;;50.50;24.92;;;;;;;3.30;45.98;102230.81;7397006;19;20492;-58
2022/12/04 06:55:59;;;;;;;47.42;22.88;;;;;;;3.31;45.88;102229.72;7396675;19;20113;-58
2022/12/04 06:58:26;;;;;;;45.10;22.88;;;;;;;3.19;46.04;102233.66;7397054;19;20208;-58
2022/12/04 07:00:52;;;;;;;46.67;23.33;;;;;;;3.24;46.40;102231.81;7393604;19;20486;-58
2022/12/04 07:03:18;;;;;;;48.63;23.85;;;;;;;3.27;46.19;102235.88;7396512;19;20025;-59
2022/12/04 07:05:44;;;;;;;45.75;22.67;;;;;;;3.34;45.94;102242.69;7396858;19;20400;-58
2022/12/04 07:08:10;;;;;;;48.05;23.20;;;;;;;3.40;45.65;102237.34;7395697;19;20005;-58
2022/12/04 07:10:36;;;;;;;47.30;22.67;;;;;;;3.34;45.93;102245.41;7394601;19;20002;-58
2022/12/04 07:13:03;;;;;;;53.00;24.58;;;;;;;3.52;45.67;102255.03;7393545;19;20680;-58
2022/12/04 07:15:31;;;;;;;49.05;23.88;;;;;;;3.55;45.59;102247.47;7396434;19;20006;-59
2022/12/04 07:17:57;;;;;;;47.50;23.05;;;;;;;3.42;45.86;102246.00;7394660;19;20191;-60
2022/12/04 07:20:23;;;;;;;48.80;23.98;;;;;;;3.54;45.71;102246.69;7395805;19;20013;-58
2022/12/04 07:22:49;;;;;;;50.78;24.00;;;;;;;3.51;45.48;102248.00;7396580;19;20031;-58
2022/12/04 07:25:14;;;;;;;49.05;23.30;;;;;;;3.57;45.56;102243.47;7394043;19;20025;-59
2022/12/04 07:27:40;;;;;;;48.22;22.83;;;;;;;3.40;45.73;102253.53;7396622;19;19999;-59
2022/12/04 07:30:07;;;;;;;48.05;23.90;;;;;;;3.20;46.37;102249.56;7393431;19;20011;-58
2022/12/04 07:32:33;;;;;;;51.10;24.33;;;;;;;3.31;46.13;102248.59;7396041;19;20348;-58
2022/12/04 07:34:58;;;;;;;45.47;23.48;;;;;;;3.32;45.96;102244.84;7394677;19;20002;-58
2022/12/04 07:37:24;;;;;;;48.83;23.55;;;;;;;3.40;45.80;102246.25;7396270;19;20024;-57
2022/12/04 07:39:51;;;;;;;49.33;24.48;;;;;;;3.33;45.97;102242.94;7395444;19;19994;-58
2022/12/04 07:42:18;;;;;;;47.95;22.92;;;;;;;3.37;45.80;102251.34;7396041;19;20330;-57
2022/12/04 07:44:44;;;;;;;44.85;22.63;;;;;;;3.46;45.80;102252.56;7395664;19;20002;-59
2022/12/04 07:47:09;;;;;;;48.25;23.40;;;;;;;3.38;45.75;102250.28;7393684;19;20005;-58
2022/12/04 07:49:35;;;;;;;46.10;22.42;;;;;;;3.28;46.11;102249.09;7393374;19;19999;-58
2022/12/04 07:52:07;;;;;;;46.78;23.00;;;;;;;3.46;45.78;102249.84;7392880;19;20089;-57
2022/12/04 07:54:35;;;;;;;46.95;23.30;;;;;;;3.39;45.96;102247.34;7395965;19;20026;-57
2022/12/04 07:57:00;;;;;;;46.70;23.20;;;;;;;3.28;45.98;102246.41;7392752;19;20003;-59
2022/12/04 07:59:26;;;;;;;47.13;23.00;;;;;;;3.42;45.95;102246.00;7394498;19;19995;-58
2022/12/04 08:01:52;;;;;;;47.75;23.08;;;;;;;3.54;45.64;102246.69;7391970;19;19994;-58
2022/12/04 08:04:18;;;;;;;44.65;22.30;;;;;;;3.42;45.77;102240.59;7395262;19;19998;-57
2022/12/04 08:06:43;;;;;;;45.78;22.27;;;;;;;3.37;45.89;102248.66;7393620;19;19999;-59
2022/12/04 08:09:09;;;;;;;46.05;22.27;;;;;;;3.40;45.97;102242.75;7394029;19;20021;-58
2022/12/04 08:11:35;;;;;;;44.25;22.15;;;;;;;3.49;45.77;102249.34;7392730;19;20552;-58
2022/12/04 08:14:03;;;;;;;46.53;23.38;;;;;;;3.56;45.73;102244.53;7393444;19;20013;-59
2022/12/04 08:16:31;;;;;;;49.10;23.65;;;;;;;3.45;45.90;102240.13;7393855;19;20017;-59
2022/12/04 08:18:57;;;;;;;44.70;23.45;;;;;;;3.50;45.82;102248.25;7394426;19;20029;-58
2022/12/04 08:21:25;;;;;;;46.67;22.70;;;;;;;3.47;45.76;102246.91;7393794;19;20466;-58
2022/12/04 08:23:53;;;;;;;46.95;22.65;;;;;;;3.39;45.88;102249.22;7393744;19;20006;-58
2022/12/04 08:26:21;;;;;;;43.38;21.52;;;;;;;3.38;46.11;102255.69;7394548;19;20103;-58
2022/12/04 08:28:47;;;;;;;47.15;22.75;;;;;;;3.29;46.25;102250.75;7393134;19;20005;-59
2022/12/04 08:31:17;;;;;;;43.95;21.83;;;;;;;3.30;46.36;102265.06;7392413;19;19999;-58
2022/12/04 08:33:44;;;;;;;46.20;23.50;;;;;;;3.33;45.92;102254.56;7392327;19;20002;-58
2022/12/04 08:36:15;;;;;;;46.50;22.80;;;;;;;3.51;45.88;102263.38;7393246;19;20414;-58
2022/12/04 08:38:41;;;;;;;47.85;22.70;;;;;;;3.35;46.23;102265.09;7393469;19;20006;-59
2022/12/04 08:41:10;;;;;;;47.00;22.77;;;;;;;3.45;46.05;102270.63;7393460;19;20011;-58
2022/12/04 08:43:36;;;;;;;49.15;21.80;;;;;;;3.60;45.51;102269.94;7394501;19;20080;-58
2022/12/04 08:46:04;;;;;;;41.28;21.55;;;;;;;3.49;45.83;102274.44;7392012;19;20522;-59
2022/12/04 08:48:30;;;;;;;46.45;22.75;;;;;;;3.44;46.21;102271.69;7393643;19;20026;-59
2022/12/04 08:50:56;;;;;;;48.58;23.08;;;;;;;3.45;46.07;102278.75;7392239;19;20042;-59
2022/12/04 08:53:23;;;;;;;45.28;21.63;;;;;;;3.54;45.74;102273.69;7394022;19;20561;-57
2022/12/04 08:55:49;;;;;;;46.33;22.35;;;;;;;3.58;45.91;102282.88;7392253;19;20338;-58
2022/12/04 08:58:15;;;;;;;46.00;22.33;;;;;;;3.65;45.67;102277.25;7393184;19;20488;-58
2022/12/04 09:00:47;;;;;;;46.00;21.95;;;;;;;3.50;45.79;102276.09;7391986;19;20007;-59
2022/12/04 09:03:16;;;;;;;45.20;22.77;;;;;;;3.49;45.99;102268.25;7392680;19;20078;-58
2022/12/04 09:05:44;;;;;;;44.72;22.48;;;;;;;3.46;46.04;102261.44;7392258;19;20030;-58
2022/12/04 09:08:11;;;;;;;46.85;23.90;;;;;;;3.48;46.09;102264.69;7391263;19;19998;-58
2022/12/04 09:10:37;;;;;;;42.75;21.80;;;;;;;3.49;46.07;102257.44;7390418;19;20073;-58
2022/12/04 09:13:03;;;;;;;42.17;21.05;;;;;;;3.55;46.20;102260.97;7391344;19;20010;-58
2022/12/04 09:15:29;;;;;;;45.78;22.70;;;;;;;3.60;45.95;102259.13;7391690;19;19999;-57
2022/12/04 09:17:55;;;;;;;43.90;22.27;;;;;;;3.52;45.88;102262.31;7392685;19;20291;-58
2022/12/04 09:20:21;;;;;;;47.03;23.10;;;;;;;3.58;45.90;102260.47;7392177;19;20492;-58
2022/12/04 09:22:46;;;;;;;44.15;22.10;;;;;;;3.55;45.94;102267.19;7392127;19;20060;-58
2022/12/04 09:25:12;;;;;;;47.70;22.20;;;;;;;3.53;46.03;102259.34;7391688;19;20396;-57
2022/12/04 09:27:40;;;;;;;43.10;22.80;;;;;;;3.50;45.89;102262.59;7392344;19;19995;-58
2022/12/04 09:30:08;;;;;;;45.80;22.27;;;;;;;3.66;45.63;102268.91;7389002;19;20006;-59
2022/12/04 09:32:37;;;;;;;45.05;21.27;;;;;;;3.75;45.47;102265.72;7391931;19;19995;-59
2022/12/04 09:35:04;;;;;;;45.53;21.60;;;;;;;3.77;45.66;102256.31;7389333;19;20011;-57
2022/12/04 09:37:32;;;;;;;44.28;22.33;;;;;;;3.79;45.57;102261.44;7390379;19;20002;-58
2022/12/04 09:39:57;;;;;;;42.30;22.15;;;;;;;3.64;46.09;102257.56;7392205;19;20003;-58
2022/12/04 09:43:16;;;;;;;43.03;22.40;;;;;;;3.77;45.75;102258.19;7391627;19;20058;-57
2022/12/04 09:45:50;;;;;;;47.58;22.38;;;;;;;3.75;45.60;102250.34;7387047;19;20727;-57
2022/12/04 09:48:18;;;;;;;45.60;22.03;;;;;;;3.77;45.80;102247.38;7387448;19;20014;-58
2022/12/04 09:50:47;;;;;;;46.25;21.80;;;;;;;3.57;46.19;102243.47;7389102;19;20284;-57
2022/12/04 09:53:21;;;;;;;44.05;22.73;;;;;;;3.56;46.20;102238.31;7390957;19;20486;-58
2022/12/04 09:55:53;;;;;;;;;;;;;;;3.62;46.22;102234.56;7391462;19;20337;-59
2022/12/04 09:58:31;;;;;;;46.83;21.85;;;;;;;3.68;45.92;102228.94;7387669;19;19923;-59
2022/12/04 10:00:59;;;;;;;47.67;22.75;;;;;;;3.85;45.61;102230.69;7390913;19;20014;-57
2022/12/04 10:03:29;;;;;;;45.75;22.15;;;;;;;3.83;45.54;102222.84;7388775;19;20007;-58
2022/12/04 10:06:14;;;;;;;50.28;23.38;;;;;;;3.99;45.49;102231.06;7390604;19;20337;-58
2022/12/04 10:08:48;;;;;;;49.47;23.95;;;;;;;4.06;45.31;102232.44;7390399;19;20002;-58
2022/12/04 10:11:41;;;;;;;47.95;22.75;;;;;;;3.83;45.75;102227.44;7388555;19;19999;-59
2022/12/04 10:14:22;;;;;;;45.85;22.55;;;;;;;3.88;46.02;102228.28;7388574;19;20497;-59
2022/12/04 10:17:14;;;;;;;46.10;21.90;;;;;;;3.87;45.85;102225.81;7388828;19;20034;-57
2022/12/04 10:20:14;;;;;;;43.20;21.45;;;;;;;3.82;46.08;102223.94;7390311;19;19991;-58
2022/12/04 10:22:53;;;;;;;45.03;21.98;;;;;;;3.82;45.97;102220.41;7389455;19;20462;-58
2022/12/04 10:25:24;;;;;;;46.83;21.85;;;;;;;3.84;46.01;102227.19;7389436;19;20009;-58
2022/12/04 10:27:52;;;;;;;49.15;23.20;;;;;;;4.00;45.84;102230.78;7390225;19;20327;-59
2022/12/04 10:30:31;;;;;;;47.80;23.55;;;;;;;4.01;45.68;102227.00;7386450;19;20078;-57
2022/12/04 10:33:02;;;;;;;42.42;21.60;;;;;;;3.95;45.91;102221.84;7390523;19;20019;-57
2022/12/04 10:35:30;;;;;;;44.45;22.83;;;;;;;3.96;45.90;102221.56;7389664;19;20002;-57
2022/12/04 10:38:02;;;;;;;46.10;22.15;;;;;;;4.03;45.92;102224.03;7388565;19;19994;-58
2022/12/04 10:40:46;;;;;;;46.20;22.25;;;;;;;4.03;45.99;102227.56;7389035;19;20003;-59
2022/12/04 10:43:27;;;;;;;45.25;22.13;;;;;;;4.03;46.00;102229.44;7390212;19;20002;-58
2022/12/04 10:45:52;;;;;;;47.00;22.40;;;;;;;3.96;46.14;102228.88;7389340;19;19998;-58
2022/12/04 10:48:39;;;;;;;49.50;23.65;;;;;;;3.96;46.18;102226.97;7389047;19;19998;-58
2022/12/04 10:51:05;;;;;;;44.95;22.33;;;;;;;3.88;46.09;102222.06;7389069;19;19999;-59
2022/12/04 10:53:34;;;;;;;47.78;22.95;;;;;;;4.00;46.24;102219.16;7387684;19;20026;-57
2022/12/04 10:56:26;;;;;;;47.20;22.83;;;;;;;4.07;46.27;102217.88;7387535;19;20006;-57
2022/12/04 10:58:56;;;;;;;45.53;21.85;;;;;;;4.17;45.70;102214.41;7388271;19;20006;-58
2022/12/04 11:01:22;;;;;;;50.00;23.83;;;;;;;4.20;45.88;102210.34;7386878;19;20002;-58
2022/12/04 11:03:57;;;;;;;46.53;23.45;;;;;;;4.08;46.18;102215.97;7389360;19;20002;-58
2022/12/04 11:06:25;;;;;;;49.38;26.00;;;;;;;4.15;46.20;102210.31;7388431;19;20002;-59
2022/12/04 11:08:53;;;;;;;45.13;22.52;;;;;;;4.12;46.35;102210.84;7392013;19;19999;-59
2022/12/04 11:11:29;;;;;;;46.90;23.77;;;;;;;4.12;46.23;102202.72;7395153;19;20467;-57
2022/12/04 11:14:12;;;;;;;44.70;22.08;;;;;;;4.05;46.54;102211.09;7392803;19;20045;-58
2022/12/04 11:16:45;;;;;;;47.28;23.52;;;;;;;3.97;46.61;102201.59;7396528;19;20006;-59
2022/12/04 11:19:25;;;;;;;47.38;23.90;;;;;;;4.18;46.25;102196.28;7397151;19;20007;-59
2022/12/04 11:21:57;;;;;;;45.30;23.15;;;;;;;4.28;46.02;102193.63;7393325;19;20461;-59
2022/12/04 11:24:28;;;;;;;46.30;24.10;;;;;;;4.07;46.49;102204.34;7394795;19;20337;-59
2022/12/04 11:26:55;;;;;;;47.90;23.23;;;;;;;4.15;46.54;102189.50;7396470;19;20452;-60
2022/12/04 11:29:28;;;;;;;49.80;23.95;;;;;;;4.13;46.29;102190.88;7395147;19;19998;-58
2022/12/04 11:31:54;;;;;;;50.25;24.08;;;;;;;4.26;46.25;102191.19;7392381;19;20009;-59
2022/12/04 11:34:23;;;;;;;47.42;22.90;;;;;;;4.31;46.25;102203.91;7396119;19;20006;-60
2022/12/04 11:36:56;;;;;;;48.28;23.88;;;;;;;4.21;46.31;102193.06;7395677;19;20011;-59
2022/12/04 11:39:31;;;;;;;50.63;24.27;;;;;;;4.26;46.22;102195.78;7394006;19;20002;-59
2022/12/04 11:42:13;;;;;;;46.67;23.35;;;;;;;4.14;46.97;102189.75;7394009;19;20014;-60
2022/12/04 11:45:16;;;;;;;50.20;23.48;;;;;;;4.28;46.39;102193.63;7395376;19;20311;-60
2022/12/04 11:47:53;;;;;;;48.55;23.42;;;;;;;4.43;46.06;102190.97;7395786;19;20014;-59